Time;durP1;ratioP1;P1;durP2;ratioP2;P2;SDS_P1;SDS_P2;PMS_P1;PMS_P2;Temp;Humidity;BMP_temperature;BMP_pressure;BME280_temperature;BME280_humidity;BME280_pressure;Samples;Min_cycle;Max_cycle;Signal;HPM_P1;HPM_P2
2023/05/15 00:02:04;;;;;;;7.30;6.70;;;11.40;99.90;;;12.10;100.00;97500.84;5161405;28;20307;-62
2023/05/15 00:04:39;;;;;;;7.72;7.07;;;11.40;99.90;;;12.07;100.00;97494.69;5164217;28;20218;-62
2023/05/15 00:07:12;;;;;;;6.70;6.20;;;11.30;99.90;;;12.05;100.00;97497.19;5161128;28;20345;-62
2023/05/15 00:09:45;;;;;;;7.57;6.88;;;11.30;99.90;;;12.05;100.00;97494.63;5162136;28;20718;-63
2023/05/15 00:12:18;;;;;;;7.28;6.65;;;11.30;99.90;;;12.03;100.00;97498.81;5163625;28;20602;-63
2023/05/15 00:14:51;;;;;;;7.25;6.50;;;11.30;99.90;;;12.02;100.00;97502.19;5161719;28;20231;-63
2023/05/15 00:17:25;;;;;;;7.22;6.63;;;11.30;99.90;;;12.00;100.00;97501.22;5159659;28;20237;-64
2023/05/15 00:20:00;;;;;;;7.20;6.60;;;11.20;99.90;;;11.98;100.00;97500.28;5162691;28;20281;-63
2023/05/15 00:22:33;;;;;;;7.68;6.97;;;11.20;99.90;;;11.96;100.00;97501.91;5153534;28;20226;-63
2023/05/15 00:25:07;;;;;;;6.65;6.15;;;11.20;99.90;;;11.97;100.00;97501.09;5137096;28;20244;-63
2023/05/15 00:27:40;;;;;;;6.95;6.35;;;11.10;99.90;;;11.95;100.00;97495.88;5141054;28;20282;-63
2023/05/15 00:30:15;;;;;;;7.00;6.40;;;11.10;99.90;;;11.90;100.00;97491.34;5140811;28;20227;-62
2023/05/15 00:32:48;;;;;;;7.07;6.55;;;11.10;99.90;;;11.90;100.00;97497.38;5140246;28;20231;-62
2023/05/15 00:35:22;;;;;;;8.00;7.20;;;11.10;99.90;;;11.84;100.00;97480.81;5144443;28;20244;-63
2023/05/15 00:37:55;;;;;;;7.50;6.82;;;11.00;99.90;;;11.81;100.00;97480.66;5141825;28;20700;-63
2023/05/15 00:40:29;;;;;;;7.70;7.00;;;11.00;99.90;;;11.75;100.00;97490.63;5159137;28;20235;-63
2023/05/15 00:43:03;;;;;;;6.95;6.35;;;10.90;99.90;;;11.71;100.00;97487.06;5162852;28;20265;-63
2023/05/15 00:45:39;;;;;;;7.95;7.18;;;10.90;99.90;;;11.67;100.00;97483.47;5162050;28;20218;-63
2023/05/15 00:48:13;;;;;;;6.95;6.45;;;10.80;99.90;;;11.64;100.00;97482.44;5165277;28;20232;-63
2023/05/15 00:50:50;;;;;;;7.13;6.35;;;10.80;99.90;;;11.58;100.00;97484.72;5162234;28;20231;-63
2023/05/15 00:53:24;;;;;;;6.80;6.25;;;10.70;99.90;;;11.57;100.00;97491.53;5162903;28;20226;-63
2023/05/15 00:55:58;;;;;;;7.70;6.90;;;10.70;99.90;;;11.56;100.00;97487.22;5159502;28;20238;-63
2023/05/15 00:58:32;;;;;;;7.85;7.10;;;10.70;99.90;;;11.50;100.00;97490.38;5158232;28;20627;-63
2023/05/15 01:01:05;;;;;;;7.32;6.72;;;10.60;99.90;;;11.46;100.00;97488.47;5159588;28;20230;-63
2023/05/15 01:03:40;;;;;;;7.15;6.45;;;10.60;99.90;;;11.47;100.00;97485.13;5169255;28;20250;-62
2023/05/15 01:06:15;;;;;;;8.18;7.47;;;10.60;99.90;;;11.46;100.00;97477.34;5162238;28;20600;-63
2023/05/15 01:08:49;;;;;;;7.60;6.88;;;10.60;99.90;;;11.44;100.00;97491.75;5163975;28;20222;-63
2023/05/15 01:11:34;;;;;;;6.82;6.30;;;10.60;99.90;;;11.42;100.00;97481.47;5161557;28;20226;-63
2023/05/15 01:14:08;;;;;;;6.88;6.28;;;10.60;99.90;;;11.43;100.00;97483.19;5163487;28;20226;-64
2023/05/15 01:16:41;;;;;;;7.40;6.80;;;10.60;99.90;;;11.46;100.00;97488.47;5162586;28;20230;-63
2023/05/15 01:19:15;;;;;;;7.22;6.63;;;10.60;99.90;;;11.45;100.00;97480.72;5164621;28;20227;-63
2023/05/15 01:22:18;;;;;;;7.20;6.70;;;10.60;99.90;;;11.50;100.00;97482.69;5165225;28;20218;-63
2023/05/15 01:25:27;;;;;;;7.50;6.80;;;10.60;99.90;;;11.43;100.00;97482.31;5161036;28;20275;-62
2023/05/15 01:28:06;;;;;;;7.70;7.05;;;10.60;99.90;;;11.33;100.00;97485.25;5162563;28;20233;-63
2023/05/15 01:30:43;;;;;;;7.25;6.65;;;10.50;99.90;;;11.31;100.00;97474.94;5161959;28;20219;-63
2023/05/15 01:33:22;;;;;;;6.88;6.28;;;10.50;99.90;;;11.35;100.00;97468.28;5160983;28;20314;-63
2023/05/15 01:36:04;;;;;;;7.35;6.85;;;10.50;99.90;;;11.38;100.00;97471.84;5158761;28;20691;-62
2023/05/15 01:38:42;;;;;;;7.32;6.70;;;10.60;99.90;;;11.36;100.00;97472.59;5163280;28;20222;-63
2023/05/15 01:41:24;;;;;;;7.47;6.93;;;10.60;99.90;;;11.44;100.00;97473.84;5160701;28;20234;-63
2023/05/15 01:44:06;;;;;;;7.63;6.93;;;10.60;99.90;;;11.43;100.00;97478.06;5162703;28;20730;-63
2023/05/15 01:46:45;;;;;;;7.32;6.80;;;10.60;99.90;;;11.42;100.00;97480.59;5146515;28;20599;-63
2023/05/15 01:49:24;;;;;;;7.07;6.47;;;10.60;99.90;;;11.42;100.00;97472.91;5159358;28;20223;-62
2023/05/15 01:52:05;;;;;;;7.50;6.90;;;10.60;99.90;;;11.42;100.00;97471.22;5160956;28;20230;-62
2023/05/15 01:54:40;;;;;;;7.28;6.60;;;10.60;99.90;;;11.37;100.00;97480.34;5162398;28;20249;-63
2023/05/15 01:57:14;;;;;;;7.53;6.93;;;10.50;99.90;;;11.33;100.00;97482.69;5157580;28;20230;-62
2023/05/15 01:59:49;;;;;;;7.40;6.80;;;10.50;99.90;;;11.33;100.00;97482.69;5160130;28;20691;-61
2023/05/15 02:02:24;;;;;;;7.88;7.18;;;10.50;99.90;;;11.31;100.00;97481.75;5162935;28;20713;-63
2023/05/15 02:04:58;;;;;;;7.70;7.00;;;10.50;99.90;;;11.31;100.00;97476.63;5161516;28;20660;-63
2023/05/15 02:07:32;;;;;;;7.45;6.80;;;10.50;99.90;;;11.32;100.00;97483.50;5161388;28;20227;-63
2023/05/15 02:10:07;;;;;;;7.90;7.20;;;10.50;99.90;;;11.24;100.00;97483.13;5161363;28;20237;-64
2023/05/15 02:12:41;;;;;;;7.70;7.00;;;10.40;99.90;;;11.14;100.00;97484.38;5159702;28;20230;-63
2023/05/15 02:15:18;;;;;;;7.57;6.88;;;10.30;99.90;;;11.14;100.00;97483.50;5157928;28;20730;-61
2023/05/15 02:17:51;;;;;;;7.53;6.82;;;10.30;99.90;;;11.18;100.00;97476.03;5158584;28;20232;-63
2023/05/15 02:20:24;;;;;;;6.55;6.05;;;10.40;99.90;;;11.19;100.00;97480.34;5158557;28;20243;-61
2023/05/15 02:22:57;;;;;;;7.50;6.90;;;10.40;99.90;;;11.22;100.00;97477.94;5161895;28;20219;-63
2023/05/15 02:25:42;;;;;;;6.78;6.28;;;10.40;99.90;;;11.30;100.00;97474.84;5160666;28;20292;-63
2023/05/15 02:28:24;;;;;;;7.18;6.57;;;10.40;99.90;;;11.26;100.00;97472.16;5161019;28;20223;-62
2023/05/15 02:31:06;;;;;;;8.23;7.47;;;10.50;99.90;;;11.38;100.00;97478.66;5158786;28;20219;-62
2023/05/15 02:33:46;;;;;;;7.45;6.80;;;10.50;99.90;;;11.39;100.00;97480.41;5161801;28;20896;-63
2023/05/15 02:36:28;;;;;;;8.27;7.55;;;10.50;99.90;;;11.40;100.00;97482.19;5160258;28;20601;-62
2023/05/15 02:39:02;;;;;;;8.05;7.25;;;10.50;99.90;;;11.40;100.00;97484.75;5160911;28;20223;-62
2023/05/15 02:41:38;;;;;;;7.25;6.57;;;10.60;99.90;;;11.37;100.00;97488.03;5160810;28;20223;-64
2023/05/15 02:44:13;;;;;;;7.25;6.65;;;10.50;99.90;;;11.35;100.00;97481.09;5160365;28;20234;-63
2023/05/15 02:46:50;;;;;;;7.78;7.07;;;10.50;99.90;;;11.42;100.00;97483.13;5159885;28;20580;-63
2023/05/15 02:49:23;;;;;;;7.63;7.03;;;10.50;99.90;;;11.38;100.00;97471.84;5158691;28;20230;-61
2023/05/15 02:51:56;;;;;;;7.15;6.57;;;10.50;99.90;;;11.43;100.00;97469.53;5160563;28;20642;-62
2023/05/15 02:54:29;;;;;;;7.32;6.72;;;10.50;99.90;;;11.44;100.00;97471.28;5161772;28;20233;-64
2023/05/15 02:57:02;;;;;;;7.22;6.63;;;10.50;99.90;;;11.41;100.00;97477.13;5163181;28;20237;-61
2023/05/15 02:59:37;;;;;;;7.00;6.40;;;10.60;99.90;;;11.40;100.00;97477.94;5160928;28;20229;-62
2023/05/15 03:02:11;;;;;;;7.68;6.97;;;10.50;99.90;;;11.43;100.00;97482.31;5157169;28;20602;-63
2023/05/15 03:04:44;;;;;;;7.90;7.20;;;10.60;99.90;;;11.40;100.00;97477.06;5159910;28;20226;-64
2023/05/15 03:07:19;;;;;;;7.88;7.13;;;10.50;99.90;;;11.35;100.00;97474.28;5162143;28;20611;-64
2023/05/15 03:09:52;;;;;;;8.25;7.55;;;10.50;99.90;;;11.29;100.00;97473.97;5164523;28;20231;-64
2023/05/15 03:12:26;;;;;;;8.60;7.80;;;10.50;99.90;;;11.29;100.00;97458.63;5162328;28;20233;-63
2023/05/15 03:15:00;;;;;;;8.48;7.78;;;10.50;99.90;;;11.41;100.00;97466.00;5161517;28;20233;-64
2023/05/15 03:17:35;;;;;;;8.77;8.05;;;10.50;99.90;;;11.44;100.00;97453.34;5162816;28;20223;-63
2023/05/15 03:20:09;;;;;;;8.85;8.07;;;10.50;99.90;;;11.45;100.00;97466.25;5162766;28;20234;-63
2023/05/15 03:22:43;;;;;;;8.20;7.40;;;10.50;99.90;;;11.46;100.00;97467.13;5164607;28;20226;-64
2023/05/15 03:25:16;;;;;;;9.00;8.10;;;10.50;99.90;;;11.43;100.00;97467.84;5162412;28;20227;-63
2023/05/15 03:27:49;;;;;;;9.07;8.27;;;10.50;99.90;;;11.38;100.00;97476.09;5162603;28;20233;-64
2023/05/15 03:30:22;;;;;;;8.32;7.53;;;10.50;99.90;;;11.29;100.00;97473.97;5162970;28;20238;-62
2023/05/15 03:32:57;;;;;;;8.70;8.00;;;10.50;99.90;;;11.30;100.00;97469.75;5164101;28;20227;-63
2023/05/15 03:35:31;;;;;;;8.10;7.40;;;10.50;99.90;;;11.26;100.00;97467.03;5169045;28;20593;-63
2023/05/15 03:38:04;;;;;;;10.00;8.27;;;10.50;99.90;;;11.25;100.00;97467.84;5165480;28;20602;-64
2023/05/15 03:40:38;;;;;;;7.78;7.07;;;10.40;99.90;;;11.25;100.00;97478.09;5164116;28;20227;-62
2023/05/15 03:43:11;;;;;;;8.50;7.60;;;10.40;99.90;;;11.25;100.00;97469.53;5155059;28;20230;-63
2023/05/15 03:45:44;;;;;;;8.95;8.13;;;10.40;99.90;;;11.22;100.00;97471.94;5160771;28;20227;-63
2023/05/15 03:48:18;;;;;;;8.57;7.88;;;10.40;99.90;;;11.24;100.00;97475.44;5163179;28;20231;-63
2023/05/15 03:50:52;;;;;;;8.93;8.10;;;10.40;99.90;;;11.23;100.00;97468.59;5162555;28;21173;-63
2023/05/15 03:53:25;;;;;;;9.85;8.55;;;10.40;99.90;;;11.23;100.00;97472.00;5161461;28;20225;-63
2023/05/15 03:55:58;;;;;;;9.43;8.52;;;10.40;99.90;;;11.21;100.00;97482.97;5164116;28;20223;-62
2023/05/15 03:58:31;;;;;;;8.70;7.90;;;10.40;99.90;;;11.17;100.00;97479.41;5163069;28;20227;-63
2023/05/15 04:01:04;;;;;;;8.95;8.05;;;10.40;99.90;;;11.15;100.00;97483.53;5161221;28;20604;-63
2023/05/15 04:03:39;;;;;;;9.02;8.32;;;10.30;99.90;;;11.14;100.00;97484.38;5160435;28;20230;-63
2023/05/15 04:06:12;;;;;;;9.25;8.45;;;10.30;99.90;;;11.16;100.00;97477.66;5163155;28;20802;-64
2023/05/15 04:08:45;;;;;;;8.70;7.90;;;10.30;99.90;;;11.17;100.00;97476.84;5159897;28;20239;-63
2023/05/15 04:11:18;;;;;;;8.60;7.80;;;10.30;99.90;;;11.16;100.00;97479.31;5163427;28;20226;-63
2023/05/15 04:13:51;;;;;;;10.32;9.35;;;10.30;99.90;;;11.18;100.00;97481.13;5158204;28;20226;-62
2023/05/15 04:16:24;;;;;;;8.93;8.18;;;10.30;99.90;;;11.20;100.00;97479.53;5160736;28;20242;-64
2023/05/15 04:18:58;;;;;;;9.70;8.63;;;10.40;99.90;;;11.26;100.00;97489.19;5165432;28;20290;-62
2023/05/15 04:21:31;;;;;;;9.10;8.20;;;10.40;99.90;;;11.27;100.00;97481.59;5163032;28;20226;-62
2023/05/15 04:24:05;;;;;;;10.00;9.00;;;10.40;99.90;;;11.32;100.00;97484.38;5160530;28;20345;-62
2023/05/15 04:26:38;;;;;;;9.73;8.60;;;10.40;99.90;;;11.36;100.00;97483.72;5162354;28;20241;-63
2023/05/15 04:29:11;;;;;;;9.23;8.32;;;10.50;99.90;;;11.38;100.00;97486.34;5158429;28;20724;-62
2023/05/15 04:31:44;;;;;;;10.68;9.13;;;10.50;99.90;;;11.42;100.00;97480.59;5160404;28;20214;-63
2023/05/15 04:34:18;;;;;;;9.23;8.32;;;10.50;99.90;;;11.55;100.00;97485.44;5163502;28;20253;-63
2023/05/15 04:36:51;;;;;;;9.25;8.52;;;10.50;99.90;;;11.54;100.00;97481.16;5160889;28;20218;-63
2023/05/15 04:39:24;;;;;;;9.50;8.60;;;10.50;99.90;;;11.50;100.00;97485.25;5157802;28;20269;-62
2023/05/15 04:41:57;;;;;;;9.25;8.45;;;10.50;99.90;;;11.50;100.00;97489.47;5161107;28;20230;-63
2023/05/15 04:44:30;;;;;;;9.25;8.35;;;10.50;99.90;;;11.53;100.00;97494.72;5161463;28;20223;-64
2023/05/15 04:47:04;;;;;;;10.80;9.73;;;10.60;99.90;;;11.54;100.00;97496.50;5158598;28;20281;-63
2023/05/15 04:49:41;;;;;;;9.65;8.75;;;10.60;99.90;;;11.53;100.00;97494.72;5157643;28;20231;-64
2023/05/15 04:52:14;;;;;;;10.00;9.10;;;10.60;99.90;;;11.55;100.00;97498.25;5159447;28;20230;-64
2023/05/15 04:54:49;;;;;;;9.13;8.23;;;10.60;99.90;;;11.63;100.00;97499.50;5166442;28;20225;-63
2023/05/15 04:57:23;;;;;;;8.57;7.80;;;10.60;99.90;;;11.73;100.00;97494.00;5163110;28;20297;-63
2023/05/15 04:59:56;;;;;;;9.80;8.98;;;10.70;99.90;;;11.82;100.00;97490.13;5160639;28;20231;-62
2023/05/15 05:02:29;;;;;;;9.75;8.82;;;10.80;99.90;;;11.95;100.00;97505.25;5164946;28;20962;-63
2023/05/15 05:05:06;;;;;;;8.95;8.25;;;10.90;99.90;;;12.09;100.00;97503.34;5160819;28;20305;-63
2023/05/15 05:07:39;;;;;;;9.13;8.32;;;11.00;99.90;;;12.09;100.00;97508.47;5163634;28;20223;-63
2023/05/15 05:10:12;;;;;;;8.75;7.95;;;11.10;99.90;;;12.12;100.00;97509.47;5161577;28;20604;-63
2023/05/15 05:12:45;;;;;;;8.95;8.15;;;11.10;99.90;;;12.22;100.00;97494.50;5162155;28;20231;-61
2023/05/15 05:15:19;;;;;;;9.10;8.27;;;11.20;99.90;;;12.41;100.00;97507.31;5163301;28;20740;-63
2023/05/15 05:17:53;;;;;;;9.15;8.38;;;11.50;99.90;;;12.80;100.00;97509.88;5163208;28;20317;-62
2023/05/15 05:20:27;;;;;;;10.38;9.48;;;11.90;99.90;;;13.39;98.88;97503.81;5160150;28;21752;-63
2023/05/15 05:23:00;;;;;;;9.73;8.93;;;12.40;99.90;;;14.15;92.76;97503.31;5161091;28;20233;-63
2023/05/15 05:25:33;;;;;;;10.00;9.07;;;13.00;99.90;;;14.68;89.04;97500.06;5160586;28;20219;-62
2023/05/15 05:28:06;;;;;;;8.55;7.75;;;13.40;99.90;;;15.06;86.79;97509.13;5163877;28;20237;-64
2023/05/15 05:30:39;;;;;;;9.07;8.23;;;13.80;99.90;;;15.44;84.48;97500.09;5158168;28;20234;-64
2023/05/15 05:33:12;;;;;;;8.32;7.65;;;14.00;99.90;;;15.66;82.08;97501.66;5160233;28;20226;-62
2023/05/15 05:35:47;;;;;;;8.32;7.72;;;14.10;99.90;;;15.71;81.74;97499.25;5163065;28;20229;-64
2023/05/15 05:38:20;;;;;;;8.60;7.82;;;14.10;99.90;;;15.83;80.32;97491.03;5160321;28;20222;-61
2023/05/15 05:40:53;;;;;;;8.63;7.93;;;14.20;99.90;;;16.12;78.89;97495.34;5163465;28;20706;-64
2023/05/15 05:43:26;;;;;;;8.27;7.63;;;14.50;99.90;;;16.24;77.75;97497.38;5157595;28;20219;-64
2023/05/15 05:45:59;;;;;;;8.10;7.35;;;14.50;99.90;;;16.14;77.75;97497.97;5163939;28;20219;-63
2023/05/15 05:48:32;;;;;;;8.27;7.57;;;14.50;99.90;;;15.97;78.82;97507.78;5161075;28;20306;-64
2023/05/15 05:51:06;;;;;;;7.78;7.18;;;14.30;99.90;;;16.02;78.02;97503.63;5164908;28;20730;-63
2023/05/15 05:53:39;;;;;;;8.15;7.55;;;14.40;99.90;;;16.07;78.24;97507.22;5162056;28;20222;-64
2023/05/15 05:56:12;;;;;;;8.40;7.50;;;14.40;99.90;;;16.02;77.40;97508.78;5160748;28;20317;-64
2023/05/15 05:58:45;;;;;;;8.13;7.43;;;14.30;99.90;;;16.01;77.88;97507.03;5160387;28;20229;-63
2023/05/15 06:01:18;;;;;;;7.93;7.32;;;14.20;99.90;;;16.15;76.80;97500.59;5163574;28;20225;-64
2023/05/15 06:03:51;;;;;;;7.43;6.72;;;14.30;99.90;;;16.36;76.22;97502.88;5162934;28;20219;-63
2023/05/15 06:06:26;;;;;;;7.70;7.07;;;14.50;99.90;;;16.38;75.97;97508.13;5159188;28;20238;-63
2023/05/15 06:08:59;;;;;;;7.50;6.90;;;14.60;99.90;;;16.27;75.62;97500.06;5161142;28;20232;-63
2023/05/15 06:11:33;;;;;;;7.20;6.63;;;14.60;99.90;;;16.11;76.24;97501.34;5160777;28;20801;-63
2023/05/15 06:14:07;;;;;;;6.72;6.22;;;14.50;99.90;;;16.08;75.97;97511.56;5160569;28;20278;-64
2023/05/15 06:16:40;;;;;;;7.80;7.20;;;14.30;99.90;;;15.95;76.37;97517.16;5163082;28;21032;-63
2023/05/15 06:19:13;;;;;;;6.93;6.32;;;14.30;99.90;;;15.84;76.84;97515.97;5160644;28;20683;-63
2023/05/15 06:21:47;;;;;;;7.15;6.50;;;14.20;99.90;;;15.65;77.45;97523.09;5161080;28;20230;-64
2023/05/15 06:24:21;;;;;;;7.18;6.65;;;14.10;99.90;;;15.74;77.40;97505.38;5160689;28;20709;-61
2023/05/15 06:26:54;;;;;;;7.00;6.50;;;14.20;99.90;;;15.58;78.02;97505.69;5161052;28;20670;-64
2023/05/15 06:29:27;;;;;;;7.18;6.65;;;14.10;99.90;;;15.53;78.29;97512.38;5163739;28;20230;-63
2023/05/15 06:32:00;;;;;;;7.47;6.88;;;14.00;99.90;;;15.49;78.83;97510.53;5161792;28;20227;-63
2023/05/15 06:34:33;;;;;;;7.20;6.60;;;13.90;99.90;;;15.40;79.95;97510.25;5144269;28;20229;-64
2023/05/15 06:37:07;;;;;;;7.60;6.90;;;14.00;99.90;;;16.08;78.61;97508.97;5161630;28;20227;-63
2023/05/15 06:39:40;;;;;;;6.80;6.30;;;14.50;99.90;;;16.90;76.82;97507.00;5164658;28;20305;-64
2023/05/15 06:42:14;;;;;;;6.22;5.82;;;15.30;99.90;;;17.84;71.22;97512.78;5160359;28;20219;-63
2023/05/15 06:44:48;;;;;;;7.30;6.70;;;16.10;99.90;;;18.42;68.52;97510.56;5160581;28;20226;-63
2023/05/15 06:47:21;;;;;;;6.95;6.43;;;16.80;99.90;;;18.95;65.34;97517.69;5157263;28;20214;-63
2023/05/15 06:49:55;;;;;;;6.53;6.03;;;17.20;99.90;;;19.46;62.72;97503.88;5162302;28;20673;-62
2023/05/15 06:52:30;;;;;;;7.03;6.43;;;17.60;99.90;;;19.74;61.25;97502.63;5160548;28;20230;-64
2023/05/15 06:55:03;;;;;;;6.95;6.40;;;17.80;99.90;;;19.96;59.17;97509.88;5160625;28;20229;-63
2023/05/15 06:57:36;;;;;;;7.22;6.53;;;17.90;99.90;;;20.04;59.17;97504.81;5159374;28;20245;-64
2023/05/15 07:00:11;;;;;;;7.05;6.55;;;17.80;99.90;;;20.32;57.91;97497.41;5158611;28;20227;-63
2023/05/15 07:02:44;;;;;;;7.43;6.82;;;18.20;99.90;;;20.47;57.99;97497.59;5161062;28;20736;-63
2023/05/15 07:05:17;;;;;;;7.72;7.18;;;18.40;99.90;;;20.54;58.09;97507.22;5164321;28;20226;-63
2023/05/15 07:07:52;;;;;;;7.68;7.07;;;18.40;99.90;;;20.66;56.17;97502.19;5161524;28;20597;-64
2023/05/15 07:10:25;;;;;;;8.13;7.32;;;18.40;99.90;;;20.79;56.42;97503.16;5163880;28;20769;-64
2023/05/15 07:12:58;;;;;;;8.95;7.18;;;18.50;99.90;;;20.81;56.73;97503.22;5159901;28;20329;-63
2023/05/15 07:15:31;;;;;;;7.95;7.35;;;18.30;99.90;;;20.40;57.44;97500.94;5162105;28;20306;-64
2023/05/15 07:18:06;;;;;;;7.65;7.05;;;18.30;99.90;;;20.54;58.33;97502.00;5159064;28;20227;-63
2023/05/15 07:20:39;;;;;;;7.50;6.93;;;18.40;99.90;;;20.86;56.95;97489.41;5160203;28;20230;-63
2023/05/15 07:23:13;;;;;;;7.28;6.78;;;18.70;99.90;;;20.95;55.76;97491.22;5160033;28;20233;-64
2023/05/15 07:25:46;;;;;;;8.20;7.60;;;18.90;99.90;;;20.85;55.96;97491.97;5160621;28;20872;-62
2023/05/15 07:28:19;;;;;;;8.07;7.38;;;18.90;99.90;;;20.99;55.45;97489.53;5159378;28;20223;-63
2023/05/15 07:30:52;;;;;;;7.50;7.00;;;18.90;99.90;;;20.99;54.81;97493.00;5158335;28;20458;-64
2023/05/15 07:33:26;;;;;;;7.40;6.80;;;19.00;99.90;;;20.88;55.66;97499.81;5158041;28;20211;-63
2023/05/15 07:35:59;;;;;;;7.13;6.60;;;19.00;99.90;;;20.98;55.00;97501.66;5160666;28;20235;-64
2023/05/15 07:38:34;;;;;;;7.78;7.18;;;18.80;99.90;;;20.90;55.57;97503.28;5160429;28;20237;-63
2023/05/15 07:41:07;;;;;;;7.78;7.10;;;18.70;99.90;;;20.95;54.93;97496.44;5152893;28;20227;-63
2023/05/15 07:43:40;;;;;;;7.97;7.28;;;18.70;99.90;;;20.72;55.97;97495.28;5139405;28;20234;-63
2023/05/15 07:46:13;;;;;;;7.93;7.32;;;18.50;99.90;;;20.85;55.70;97491.97;5140881;28;20611;-64
2023/05/15 07:48:46;;;;;;;8.30;7.70;;;18.60;99.90;;;20.96;54.72;97486.91;5146981;28;20237;-64
2023/05/15 07:51:19;;;;;;;7.60;7.00;;;18.90;99.90;;;21.32;54.43;97491.56;5162409;28;20227;-64
2023/05/15 07:53:54;;;;;;;7.40;6.70;;;19.00;99.90;;;22.01;53.70;97490.38;5160021;28;20233;-63
2023/05/15 07:56:27;;;;;;;7.07;6.47;;;19.40;99.90;;;22.32;51.83;97485.38;5162480;28;20603;-63
2023/05/15 07:59:00;;;;;;;7.82;7.18;;;19.70;99.90;;;22.75;50.34;97493.34;5163307;28;20235;-63
2023/05/15 08:01:33;;;;;;;6.95;6.40;;;20.10;99.90;;;22.63;52.12;97495.88;5163507;28;20227;-62
2023/05/15 08:04:08;;;;;;;7.10;6.43;;;20.10;99.90;;;22.37;51.20;97483.63;5165982;28;20679;-63
2023/05/15 08:06:42;;;;;;;7.20;6.70;;;20.20;99.90;;;22.17;52.22;97485.25;5168140;28;20317;-64
2023/05/15 08:09:17;;;;;;;6.70;6.20;;;20.20;99.90;;;21.89;52.39;97479.91;5163944;28;20332;-64
2023/05/15 08:11:50;;;;;;;7.00;6.50;;;20.10;99.90;;;21.41;53.65;97488.22;5163414;28;20703;-64
2023/05/15 08:14:23;;;;;;;7.28;6.68;;;19.60;99.90;;;21.43;54.13;97482.13;5163181;28;20641;-63
2023/05/15 08:16:56;;;;;;;6.95;6.45;;;19.80;99.90;;;21.57;53.57;97483.13;5168326;28;20257;-63
2023/05/15 08:19:29;;;;;;;7.32;6.72;;;20.00;99.90;;;21.32;54.45;97483.78;5162707;28;20230;-64
2023/05/15 08:22:02;;;;;;;7.07;6.57;;;19.50;99.90;;;21.14;55.96;97482.72;5163169;28;20257;-65
2023/05/15 08:24:37;;;;;;;7.90;7.30;;;19.60;99.90;;;21.40;54.33;97476.91;5163063;28;20238;-63
2023/05/15 08:27:10;;;;;;;7.32;6.82;;;19.90;99.90;;;21.52;53.63;97479.63;5162712;28;20725;-63
2023/05/15 08:29:43;;;;;;;7.05;6.55;;;20.10;99.90;;;21.66;53.54;97471.03;5162815;28;20226;-63
2023/05/15 08:32:17;;;;;;;6.38;5.88;;;20.50;99.90;;;21.77;53.30;97479.78;5162029;28;20227;-64
2023/05/15 08:34:50;;;;;;;6.28;5.78;;;20.60;99.90;;;21.86;52.60;97472.03;5162342;28;20597;-63
2023/05/15 08:37:23;;;;;;;7.03;6.53;;;20.60;99.90;;;21.68;53.57;97478.00;5164606;28;20313;-63
2023/05/15 08:39:57;;;;;;;6.65;6.15;;;20.20;99.90;;;21.67;53.22;97471.06;5162936;28;20736;-64
2023/05/15 08:42:40;;;;;;;6.32;5.78;;;20.00;99.90;;;21.65;53.42;97469.31;5163101;28;20230;-63
2023/05/15 08:45:13;;;;;;;6.50;5.90;;;20.20;99.90;;;21.71;53.35;97459.81;5164059;28;20237;-63
2023/05/15 08:47:46;;;;;;;6.00;5.53;;;20.50;99.90;;;21.70;52.24;97468.47;5161915;28;20245;-63
2023/05/15 08:50:21;;;;;;;6.40;5.80;;;20.50;99.90;;;21.59;53.30;97470.13;5164337;28;20231;-62
2023/05/15 08:52:57;;;;;;;6.13;5.72;;;20.40;99.90;;;21.79;52.50;97462.47;5163007;28;20227;-63
2023/05/15 08:55:32;;;;;;;5.90;5.50;;;20.60;99.90;;;21.85;51.18;97459.03;5162548;28;20218;-63
2023/05/15 08:58:05;;;;;;;5.55;5.10;;;20.70;99.90;;;21.81;51.64;97460.75;5161847;28;20233;-63
2023/05/15 09:00:38;;;;;;;5.25;4.85;;;20.70;99.90;;;22.18;50.33;97461.00;5165324;28;20237;-61
2023/05/15 09:03:17;;;;;;;5.40;5.00;;;21.30;99.90;;;22.17;49.64;97459.19;5163316;28;20253;-63
2023/05/15 09:05:52;;;;;;;5.70;5.20;;;21.20;99.60;;;22.23;50.13;97457.56;5160904;28;20227;-64
2023/05/15 09:08:27;;;;;;;4.95;4.65;;;21.20;99.60;;;22.10;51.38;97452.25;5161394;28;20237;-63
2023/05/15 09:11:03;;;;;;;5.47;5.00;;;21.20;99.90;;;22.20;49.41;97454.03;5162031;28;20435;-63
2023/05/15 09:13:36;;;;;;;5.50;5.10;;;21.20;99.30;;;22.09;49.22;97450.47;5170998;28;20224;-62
2023/05/15 09:16:09;;;;;;;6.20;5.70;;;21.00;99.40;;;21.96;49.28;97444.34;5161234;28;20231;-64
2023/05/15 09:18:43;;;;;;;5.75;5.35;;;20.80;99.30;;;22.03;49.17;97444.41;5162574;28;20281;-62
2023/05/15 09:21:24;;;;;;;5.57;5.28;;;21.10;99.00;;;22.37;49.85;97441.94;5160258;28;20699;-63
2023/05/15 09:24:18;;;;;;;5.65;5.20;;;21.40;99.50;;;22.32;49.12;97438.50;5158816;28;20218;-63
2023/05/15 09:27:06;;;;;;;5.95;5.45;;;21.30;99.20;;;22.02;49.30;97434.84;5147158;28;20683;-63
2023/05/15 09:29:40;;;;;;;6.07;5.57;;;20.90;99.10;;;21.70;50.23;97426.84;5161359;28;20641;-63
2023/05/15 09:32:15;;;;;;;5.53;5.13;;;20.60;99.50;;;21.45;51.28;97425.81;5163166;28;20226;-63
2023/05/15 09:34:48;;;;;;;6.18;5.50;;;20.30;99.90;;;21.52;52.12;97419.81;5161964;28;20734;-63
2023/05/15 09:37:30;;;;;;;7.32;5.60;;;20.60;99.90;;;21.63;50.28;97424.19;5162221;28;20230;-63
2023/05/15 09:40:09;;;;;;;5.68;5.28;;;20.60;99.10;;;21.64;50.29;97415.56;5163403;28;20707;-63
2023/05/15 09:42:51;;;;;;;5.95;5.50;;;20.50;99.50;;;21.69;50.43;97419.03;5162108;28;20254;-64
2023/05/15 09:45:28;;;;;;;5.85;5.45;;;20.80;99.50;;;21.82;49.37;97420.84;5160981;28;20230;-63
2023/05/15 09:48:05;;;;;;;5.82;5.32;;;20.80;98.70;;;21.70;49.91;97416.44;5161411;28;20231;-62
2023/05/15 09:50:41;;;;;;;5.75;5.35;;;20.60;99.40;;;21.54;50.54;97425.00;5163285;28;20710;-63
2023/05/15 09:53:14;;;;;;;5.38;5.05;;;20.50;99.20;;;21.68;50.34;97417.31;5163711;28;20749;-63
2023/05/15 09:55:54;;;;;;;5.50;5.10;;;20.70;99.70;;;21.98;50.09;97421.81;5163460;28;20572;-64
2023/05/15 09:58:28;;;;;;;5.22;4.90;;;20.90;99.30;;;21.80;50.41;97419.97;5161834;28;20314;-64
2023/05/15 10:01:02;;;;;;;5.07;4.78;;;20.70;99.20;;;21.64;51.23;97416.41;5162343;28;20609;-64
2023/05/15 10:03:36;;;;;;;5.78;5.38;;;20.40;99.90;;;21.33;50.54;97410.09;5161079;28;20644;-64
2023/05/15 10:06:18;;;;;;;5.72;5.22;;;20.10;99.40;;;21.11;50.84;97407.31;5161413;28;20326;-63
2023/05/15 10:08:52;;;;;;;5.45;5.15;;;19.60;99.90;;;20.97;51.44;97410.66;5162981;28;20233;-63
2023/05/15 10:11:26;;;;;;;4.80;4.50;;;19.60;99.90;;;21.11;50.96;97396.94;5161274;28;20222;-63
2023/05/15 10:14:01;;;;;;;5.10;4.80;;;19.70;99.90;;;21.17;50.71;97387.44;5162713;28;20234;-63
2023/05/15 10:16:37;;;;;;;5.05;4.75;;;19.60;99.90;;;21.25;49.53;97390.97;5150893;28;20318;-63
2023/05/15 10:19:12;;;;;;;5.22;4.82;;;20.00;99.00;;;21.36;49.52;97378.94;5141319;28;20686;-64
2023/05/15 10:21:46;;;;;;;4.88;4.47;;;20.30;99.20;;;21.44;49.73;97372.09;5142968;28;20223;-64
2023/05/15 10:24:21;;;;;;;5.00;4.70;;;20.40;98.70;;;21.73;48.24;97379.19;5154932;28;20215;-64
2023/05/15 10:26:57;;;;;;;4.57;4.28;;;20.60;97.80;;;21.97;46.55;97375.81;5148235;28;20233;-64
2023/05/15 10:29:32;;;;;;;4.40;4.10;;;21.10;96.60;;;22.07;45.84;97379.34;5146525;28;20227;-65
2023/05/15 10:32:06;;;;;;;4.80;4.50;;;21.20;95.90;;;22.34;46.31;97376.84;5155387;28;20228;-64
2023/05/15 10:34:39;;;;;;;4.72;4.38;;;21.50;96.20;;;22.38;45.65;97376.00;5164233;28;20223;-64
2023/05/15 10:37:13;;;;;;;4.18;3.97;;;21.60;95.30;;;22.60;46.36;97370.81;5160386;28;20222;-67
2023/05/15 10:39:48;;;;;;;4.60;4.20;;;21.70;96.10;;;22.65;44.67;97371.69;5160459;28;20218;-66
2023/05/15 10:42:21;;;;;;;4.40;4.10;;;21.90;94.80;;;22.46;44.74;97369.06;5157586;28;20222;-63
2023/05/15 10:44:58;;;;;;;5.35;4.05;;;21.70;94.60;;;22.56;44.94;97363.88;5160490;28;20219;-63
2023/05/15 10:47:33;;;;;;;4.70;4.30;;;21.80;94.90;;;22.73;43.52;97354.34;5160391;28;20321;-63